Thailine 5 — 9WFF5 — position and weather

sailwx.info

Track history (hours):
 
Tides and Currents Weather Stations Pressure Air Temp Water Temp Dewpoint Dewpoint Depression Visibility Wind Speed Wind Dir Waves Ship Positions

Thailine 5

Last reported at 2016-Jun-03 11:29 UTC. Time now 2016-Jun-25 19:42 UTC.
Position N 34°07' E 134°56'.
Warning: this ship's position is 22 days out of date.

Length 98 m; draft 5.2 m.

Type: Cargo ship. MMSI: 533399000.

Date/timePositionNaut miles runAvg speedWind from/ knotsBaromVisibWave heightAir tempDewpointWater temp
2016-Jun-03 11:29N 34°07' E 134°56'16 8.0
2016-Jun-03 09:25N 34°23' E 135°01'7 8.6
2016-Jun-03 08:34N 34°26' E 135°09'9 9.0
2016-Jun-03 07:33N 34°31' E 135°18'4 3.9
2016-Jun-03 06:31N 34°31' E 135°23'0 0.0
2016-Jun-03 04:13N 34°31' E 135°23'0 0.0
2016-Jun-03 01:31N 34°31' E 135°23'0 0.0
2016-Jun-02 14:13N 34°31' E 135°23'0 0.0
2016-Jun-02 09:25N 34°31' E 135°23'0 0.0
2016-Jun-02 08:13N 34°31' E 135°23'0 0.0
2016-Jun-02 07:31N 34°31' E 135°23'0 0.0
2016-Jun-02 04:13N 34°31' E 135°23'0 0.0
2016-Jun-02 03:31N 34°31' E 135°23'2 1.9
2016-Jun-02 02:33N 34°33' E 135°22'9 9.4
2016-Jun-02 01:33N 34°34' E 135°11'1111.1
2016-Jun-02 00:33N 34°36' E 134°57'  
Track history (hours):
 
Tides and Currents Weather Stations Pressure Air Temp Water Temp Dewpoint Dewpoint Depression Visibility Wind Speed Wind Dir Waves Ship Positions

Thailine 5

Last reported at 2016-Jun-03 11:29 UTC. Time now 2016-Jun-25 19:42 UTC.
Position N 34°07' E 134°56'.
Warning: this ship's position is 22 days out of date.

Length 98 m; draft 5.2 m.

Type: Cargo ship. MMSI: 533399000.

Date/timePositionNaut miles runAvg speedWind from/ knotsBaromVisibWave heightAir tempDewpointWater temp
2016-Jun-03 11:29N 34°07' E 134°56'16 8.0
2016-Jun-03 09:25N 34°23' E 135°01'7 8.6
2016-Jun-03 08:34N 34°26' E 135°09'9 9.0
2016-Jun-03 07:33N 34°31' E 135°18'4 3.9
2016-Jun-03 06:31N 34°31' E 135°23'0 0.0
2016-Jun-03 04:13N 34°31' E 135°23'0 0.0
2016-Jun-03 01:31N 34°31' E 135°23'0 0.0
2016-Jun-02 14:13N 34°31' E 135°23'0 0.0
2016-Jun-02 09:25N 34°31' E 135°23'0 0.0
2016-Jun-02 08:13N 34°31' E 135°23'0 0.0
2016-Jun-02 07:31N 34°31' E 135°23'0 0.0
2016-Jun-02 04:13N 34°31' E 135°23'0 0.0
2016-Jun-02 03:31N 34°31' E 135°23'2 1.9
2016-Jun-02 02:33N 34°33' E 135°22'9 9.4
2016-Jun-02 01:33N 34°34' E 135°11'1111.1
2016-Jun-02 00:33N 34°36' E 134°57'  

Dump ship's entire track history